sensor_id;sensor_type;location;lat;lon;timestamp;P1;durP1;ratioP1;P2;durP2;ratioP2
79284;SDS011;68734;50.452;11.636;2024-01-11T00:01:10;25.35;;;10.93;;
79284;SDS011;68734;50.452;11.636;2024-01-11T00:03:38;20.20;;;12.50;;
79284;SDS011;68734;50.452;11.636;2024-01-11T00:06:03;22.27;;;10.77;;
79284;SDS011;68734;50.452;11.636;2024-01-11T00:08:29;24.45;;;13.10;;
79284;SDS011;68734;50.452;11.636;2024-01-11T00:10:55;28.98;;;13.10;;
79284;SDS011;68734;50.452;11.636;2024-01-11T00:13:20;27.88;;;12.75;;
79284;SDS011;68734;50.452;11.636;2024-01-11T00:15:49;36.10;;;14.55;;
79284;SDS011;68734;50.452;11.636;2024-01-11T00:18:17;31.25;;;15.50;;
79284;SDS011;68734;50.452;11.636;2024-01-11T00:20:42;36.60;;;14.63;;
79284;SDS011;68734;50.452;11.636;2024-01-11T00:23:10;36.40;;;16.27;;
79284;SDS011;68734;50.452;11.636;2024-01-11T00:25:36;37.13;;;15.57;;
79284;SDS011;68734;50.452;11.636;2024-01-11T00:28:01;36.78;;;17.02;;
79284;SDS011;68734;50.452;11.636;2024-01-11T00:30:29;29.92;;;16.73;;
79284;SDS011;68734;50.452;11.636;2024-01-11T00:32:55;44.63;;;15.98;;
79284;SDS011;68734;50.452;11.636;2024-01-11T00:35:20;33.25;;;15.23;;
79284;SDS011;68734;50.452;11.636;2024-01-11T00:37:48;39.50;;;18.35;;
79284;SDS011;68734;50.452;11.636;2024-01-11T00:40:14;27.48;;;16.70;;
79284;SDS011;68734;50.452;11.636;2024-01-11T00:42:39;31.35;;;15.52;;
79284;SDS011;68734;50.452;11.636;2024-01-11T00:45:07;24.02;;;13.45;;
79284;SDS011;68734;50.452;11.636;2024-01-11T00:47:35;27.52;;;12.52;;
79284;SDS011;68734;50.452;11.636;2024-01-11T00:50:00;30.73;;;15.15;;
79284;SDS011;68734;50.452;11.636;2024-01-11T00:52:26;34.28;;;14.13;;
79284;SDS011;68734;50.452;11.636;2024-01-11T00:54:51;37.13;;;16.48;;
79284;SDS011;68734;50.452;11.636;2024-01-11T00:57:17;28.02;;;13.05;;
79284;SDS011;68734;50.452;11.636;2024-01-11T00:59:42;36.95;;;15.82;;
79284;SDS011;68734;50.452;11.636;2024-01-11T01:02:07;27.02;;;13.30;;
79284;SDS011;68734;50.452;11.636;2024-01-11T01:04:38;24.08;;;12.27;;
79284;SDS011;68734;50.452;11.636;2024-01-11T01:07:04;26.38;;;13.68;;
79284;SDS011;68734;50.452;11.636;2024-01-11T01:09:30;34.50;;;14.93;;
79284;SDS011;68734;50.452;11.636;2024-01-11T01:11:56;36.55;;;16.30;;
79284;SDS011;68734;50.452;11.636;2024-01-11T01:14:24;28.75;;;15.48;;
79284;SDS011;68734;50.452;11.636;2024-01-11T01:16:49;25.35;;;13.13;;
79284;SDS011;68734;50.452;11.636;2024-01-11T01:19:15;25.45;;;14.80;;
79284;SDS011;68734;50.452;11.636;2024-01-11T01:21:40;30.40;;;13.20;;
79284;SDS011;68734;50.452;11.636;2024-01-11T01:24:05;32.47;;;14.93;;
79284;SDS011;68734;50.452;11.636;2024-01-11T01:26:33;30.27;;;14.82;;
79284;SDS011;68734;50.452;11.636;2024-01-11T01:28:59;31.38;;;16.00;;
79284;SDS011;68734;50.452;11.636;2024-01-11T01:31:27;29.73;;;13.98;;
79284;SDS011;68734;50.452;11.636;2024-01-11T01:33:52;23.80;;;12.73;;
79284;SDS011;68734;50.452;11.636;2024-01-11T01:36:17;26.85;;;13.13;;
79284;SDS011;68734;50.452;11.636;2024-01-11T01:38:43;22.83;;;11.65;;
79284;SDS011;68734;50.452;11.636;2024-01-11T01:41:08;27.77;;;13.10;;
79284;SDS011;68734;50.452;11.636;2024-01-11T01:43:34;30.05;;;14.65;;
79284;SDS011;68734;50.452;11.636;2024-01-11T01:45:59;22.75;;;12.35;;
79284;SDS011;68734;50.452;11.636;2024-01-11T01:48:25;21.15;;;12.18;;
79284;SDS011;68734;50.452;11.636;2024-01-11T01:50:52;35.38;;;13.30;;
79284;SDS011;68734;50.452;11.636;2024-01-11T01:53:20;26.42;;;13.38;;
79284;SDS011;68734;50.452;11.636;2024-01-11T01:55:47;23.65;;;11.70;;
79284;SDS011;68734;50.452;11.636;2024-01-11T02:00:40;25.50;;;13.52;;
79284;SDS011;68734;50.452;11.636;2024-01-11T02:03:06;22.70;;;13.00;;
79284;SDS011;68734;50.452;11.636;2024-01-11T02:05:33;26.75;;;13.00;;
79284;SDS011;68734;50.452;11.636;2024-01-11T02:08:03;28.55;;;13.35;;
79284;SDS011;68734;50.452;11.636;2024-01-11T02:10:33;18.48;;;11.75;;
79284;SDS011;68734;50.452;11.636;2024-01-11T02:13:00;24.88;;;13.05;;
79284;SDS011;68734;50.452;11.636;2024-01-11T02:15:26;28.95;;;13.15;;
79284;SDS011;68734;50.452;11.636;2024-01-11T02:17:51;29.55;;;14.20;;
79284;SDS011;68734;50.452;11.636;2024-01-11T02:20:19;23.67;;;12.75;;
79284;SDS011;68734;50.452;11.636;2024-01-11T02:22:46;30.10;;;14.00;;
79284;SDS011;68734;50.452;11.636;2024-01-11T02:25:18;25.38;;;12.77;;
79284;SDS011;68734;50.452;11.636;2024-01-11T02:30:13;19.38;;;10.38;;
79284;SDS011;68734;50.452;11.636;2024-01-11T02:35:04;19.93;;;10.00;;
79284;SDS011;68734;50.452;11.636;2024-01-11T02:37:30;26.42;;;12.55;;
79284;SDS011;68734;50.452;11.636;2024-01-11T02:39:56;27.60;;;11.68;;
79284;SDS011;68734;50.452;11.636;2024-01-11T02:42:22;25.17;;;11.85;;
79284;SDS011;68734;50.452;11.636;2024-01-11T02:44:47;19.33;;;11.60;;
79284;SDS011;68734;50.452;11.636;2024-01-11T02:47:12;26.73;;;13.05;;
79284;SDS011;68734;50.452;11.636;2024-01-11T02:49:38;22.63;;;11.63;;
79284;SDS011;68734;50.452;11.636;2024-01-11T02:52:03;26.25;;;13.40;;
79284;SDS011;68734;50.452;11.636;2024-01-11T02:54:29;21.13;;;10.70;;
79284;SDS011;68734;50.452;11.636;2024-01-11T02:56:54;19.15;;;11.38;;
79284;SDS011;68734;50.452;11.636;2024-01-11T02:59:22;26.45;;;11.77;;
79284;SDS011;68734;50.452;11.636;2024-01-11T03:01:48;26.40;;;10.65;;
79284;SDS011;68734;50.452;11.636;2024-01-11T03:04:19;20.00;;;10.55;;
79284;SDS011;68734;50.452;11.636;2024-01-11T03:06:44;15.85;;;9.30;;
79284;SDS011;68734;50.452;11.636;2024-01-11T03:09:10;34.70;;;12.43;;
79284;SDS011;68734;50.452;11.636;2024-01-11T03:11:35;21.30;;;10.02;;
79284;SDS011;68734;50.452;11.636;2024-01-11T03:14:02;27.15;;;12.43;;
79284;SDS011;68734;50.452;11.636;2024-01-11T03:16:32;18.63;;;10.88;;
79284;SDS011;68734;50.452;11.636;2024-01-11T03:18:58;22.52;;;10.98;;
79284;SDS011;68734;50.452;11.636;2024-01-11T03:21:23;30.05;;;13.23;;
79284;SDS011;68734;50.452;11.636;2024-01-11T03:23:49;24.05;;;12.43;;
79284;SDS011;68734;50.452;11.636;2024-01-11T03:26:15;28.02;;;12.57;;
79284;SDS011;68734;50.452;11.636;2024-01-11T03:28:41;22.88;;;12.52;;
79284;SDS011;68734;50.452;11.636;2024-01-11T03:31:09;23.23;;;12.20;;
79284;SDS011;68734;50.452;11.636;2024-01-11T03:33:35;24.48;;;11.63;;
79284;SDS011;68734;50.452;11.636;2024-01-11T03:36:07;19.58;;;11.13;;
79284;SDS011;68734;50.452;11.636;2024-01-11T03:38:34;25.02;;;12.45;;
79284;SDS011;68734;50.452;11.636;2024-01-11T03:41:02;22.05;;;11.80;;
79284;SDS011;68734;50.452;11.636;2024-01-11T03:45:58;12.73;;;7.33;;
79284;SDS011;68734;50.452;11.636;2024-01-11T03:48:25;21.92;;;11.50;;
79284;SDS011;68734;50.452;11.636;2024-01-11T03:50:51;15.73;;;9.90;;
79284;SDS011;68734;50.452;11.636;2024-01-11T03:53:16;21.77;;;9.70;;
79284;SDS011;68734;50.452;11.636;2024-01-11T03:55:42;15.93;;;9.60;;
79284;SDS011;68734;50.452;11.636;2024-01-11T03:58:07;29.05;;;11.23;;
79284;SDS011;68734;50.452;11.636;2024-01-11T04:00:33;21.02;;;9.70;;
79284;SDS011;68734;50.452;11.636;2024-01-11T04:02:58;29.13;;;10.68;;
79284;SDS011;68734;50.452;11.636;2024-01-11T04:05:27;22.38;;;11.98;;
79284;SDS011;68734;50.452;11.636;2024-01-11T04:07:52;31.90;;;12.93;;
79284;SDS011;68734;50.452;11.636;2024-01-11T04:10:17;21.27;;;11.25;;
79284;SDS011;68734;50.452;11.636;2024-01-11T04:12:43;24.65;;;13.70;;
79284;SDS011;68734;50.452;11.636;2024-01-11T04:15:11;23.50;;;10.52;;
79284;SDS011;68734;50.452;11.636;2024-01-11T04:17:38;15.27;;;9.88;;
79284;SDS011;68734;50.452;11.636;2024-01-11T04:20:04;21.88;;;11.13;;
79284;SDS011;68734;50.452;11.636;2024-01-11T04:22:30;38.58;;;15.23;;
79284;SDS011;68734;50.452;11.636;2024-01-11T04:24:56;22.35;;;10.82;;
79284;SDS011;68734;50.452;11.636;2024-01-11T04:27:21;16.52;;;10.68;;
79284;SDS011;68734;50.452;11.636;2024-01-11T04:29:47;23.05;;;12.10;;
79284;SDS011;68734;50.452;11.636;2024-01-11T04:32:12;22.17;;;9.73;;
79284;SDS011;68734;50.452;11.636;2024-01-11T04:34:38;32.17;;;14.05;;
79284;SDS011;68734;50.452;11.636;2024-01-11T04:37:03;11.57;;;7.90;;
79284;SDS011;68734;50.452;11.636;2024-01-11T04:39:31;23.52;;;10.20;;
79284;SDS011;68734;50.452;11.636;2024-01-11T04:41:57;21.70;;;9.98;;
79284;SDS011;68734;50.452;11.636;2024-01-11T04:44:22;21.30;;;12.15;;
79284;SDS011;68734;50.452;11.636;2024-01-11T04:46:47;14.82;;;8.73;;
79284;SDS011;68734;50.452;11.636;2024-01-11T04:49:15;23.60;;;10.85;;
79284;SDS011;68734;50.452;11.636;2024-01-11T04:51:44;30.45;;;10.25;;
79284;SDS011;68734;50.452;11.636;2024-01-11T04:54:12;27.20;;;10.82;;
79284;SDS011;68734;50.452;11.636;2024-01-11T04:56:37;21.92;;;11.68;;
79284;SDS011;68734;50.452;11.636;2024-01-11T04:59:02;19.85;;;10.25;;
79284;SDS011;68734;50.452;11.636;2024-01-11T05:01:28;13.95;;;9.07;;
79284;SDS011;68734;50.452;11.636;2024-01-11T05:03:53;20.55;;;9.05;;
79284;SDS011;68734;50.452;11.636;2024-01-11T05:06:19;19.55;;;11.13;;
79284;SDS011;68734;50.452;11.636;2024-01-11T05:08:48;23.70;;;11.20;;
79284;SDS011;68734;50.452;11.636;2024-01-11T05:11:19;18.80;;;9.13;;
79284;SDS011;68734;50.452;11.636;2024-01-11T05:13:49;19.13;;;8.25;;
79284;SDS011;68734;50.452;11.636;2024-01-11T05:18:43;16.92;;;8.30;;
79284;SDS011;68734;50.452;11.636;2024-01-11T05:21:11;17.17;;;7.82;;
79284;SDS011;68734;50.452;11.636;2024-01-11T05:23:36;24.70;;;10.15;;
79284;SDS011;68734;50.452;11.636;2024-01-11T05:26:02;17.08;;;9.38;;
79284;SDS011;68734;50.452;11.636;2024-01-11T05:28:30;19.90;;;8.73;;
79284;SDS011;68734;50.452;11.636;2024-01-11T05:30:56;40.88;;;18.55;;
79284;SDS011;68734;50.452;11.636;2024-01-11T05:33:21;26.70;;;14.73;;
79284;SDS011;68734;50.452;11.636;2024-01-11T05:35:47;28.15;;;13.77;;
79284;SDS011;68734;50.452;11.636;2024-01-11T05:38:12;30.20;;;13.90;;
79284;SDS011;68734;50.452;11.636;2024-01-11T05:40:38;40.30;;;16.63;;
79284;SDS011;68734;50.452;11.636;2024-01-11T05:43:03;28.98;;;15.15;;
79284;SDS011;68734;50.452;11.636;2024-01-11T05:45:29;22.67;;;12.93;;
79284;SDS011;68734;50.452;11.636;2024-01-11T05:47:54;32.83;;;16.60;;
79284;SDS011;68734;50.452;11.636;2024-01-11T05:50:20;30.23;;;14.82;;
79284;SDS011;68734;50.452;11.636;2024-01-11T05:52:45;30.27;;;14.25;;
79284;SDS011;68734;50.452;11.636;2024-01-11T05:55:11;15.35;;;10.27;;
79284;SDS011;68734;50.452;11.636;2024-01-11T05:57:38;22.73;;;9.93;;
79284;SDS011;68734;50.452;11.636;2024-01-11T06:00:06;14.73;;;7.75;;
79284;SDS011;68734;50.452;11.636;2024-01-11T06:02:31;20.05;;;9.32;;
79284;SDS011;68734;50.452;11.636;2024-01-11T06:04:57;22.65;;;12.25;;
79284;SDS011;68734;50.452;11.636;2024-01-11T06:07:22;26.20;;;10.15;;
79284;SDS011;68734;50.452;11.636;2024-01-11T06:09:48;17.17;;;10.40;;
79284;SDS011;68734;50.452;11.636;2024-01-11T06:12:14;22.08;;;10.60;;
79284;SDS011;68734;50.452;11.636;2024-01-11T06:14:39;19.65;;;7.95;;
79284;SDS011;68734;50.452;11.636;2024-01-11T06:17:05;20.00;;;11.27;;
79284;SDS011;68734;50.452;11.636;2024-01-11T06:19:30;22.13;;;12.05;;
79284;SDS011;68734;50.452;11.636;2024-01-11T06:21:56;29.67;;;12.30;;
79284;SDS011;68734;50.452;11.636;2024-01-11T06:24:21;26.52;;;12.40;;
79284;SDS011;68734;50.452;11.636;2024-01-11T06:26:49;37.45;;;16.10;;
79284;SDS011;68734;50.452;11.636;2024-01-11T06:29:14;21.42;;;13.38;;
79284;SDS011;68734;50.452;11.636;2024-01-11T06:31:40;22.63;;;9.75;;
79284;SDS011;68734;50.452;11.636;2024-01-11T06:34:05;16.38;;;10.02;;
79284;SDS011;68734;50.452;11.636;2024-01-11T06:36:31;23.50;;;11.65;;
79284;SDS011;68734;50.452;11.636;2024-01-11T06:38:56;26.02;;;12.68;;
79284;SDS011;68734;50.452;11.636;2024-01-11T06:41:21;21.45;;;10.50;;
79284;SDS011;68734;50.452;11.636;2024-01-11T06:43:47;23.67;;;10.23;;
79284;SDS011;68734;50.452;11.636;2024-01-11T06:46:12;27.95;;;16.17;;
79284;SDS011;68734;50.452;11.636;2024-01-11T06:48:38;18.48;;;10.38;;
79284;SDS011;68734;50.452;11.636;2024-01-11T06:51:03;32.47;;;14.77;;
79284;SDS011;68734;50.452;11.636;2024-01-11T06:53:31;24.42;;;10.48;;
79284;SDS011;68734;50.452;11.636;2024-01-11T06:55:56;21.60;;;11.18;;
79284;SDS011;68734;50.452;11.636;2024-01-11T06:58:22;21.27;;;13.40;;
79284;SDS011;68734;50.452;11.636;2024-01-11T07:00:48;29.38;;;15.77;;
79284;SDS011;68734;50.452;11.636;2024-01-11T07:03:14;38.88;;;18.80;;
79284;SDS011;68734;50.452;11.636;2024-01-11T07:05:40;31.52;;;16.83;;
79284;SDS011;68734;50.452;11.636;2024-01-11T07:08:06;34.78;;;18.85;;
79284;SDS011;68734;50.452;11.636;2024-01-11T07:10:31;31.17;;;16.27;;
79284;SDS011;68734;50.452;11.636;2024-01-11T07:12:57;60.58;;;32.05;;
79284;SDS011;68734;50.452;11.636;2024-01-11T07:15:22;23.88;;;15.77;;
79284;SDS011;68734;50.452;11.636;2024-01-11T07:17:48;28.52;;;16.48;;
79284;SDS011;68734;50.452;11.636;2024-01-11T07:20:14;36.45;;;15.32;;
79284;SDS011;68734;50.452;11.636;2024-01-11T07:22:41;25.35;;;16.67;;
79284;SDS011;68734;50.452;11.636;2024-01-11T07:25:07;30.33;;;15.73;;
79284;SDS011;68734;50.452;11.636;2024-01-11T07:27:33;34.03;;;14.63;;
79284;SDS011;68734;50.452;11.636;2024-01-11T07:29:58;32.10;;;14.57;;
79284;SDS011;68734;50.452;11.636;2024-01-11T07:32:27;22.85;;;12.88;;
79284;SDS011;68734;50.452;11.636;2024-01-11T07:34:57;29.55;;;15.85;;
79284;SDS011;68734;50.452;11.636;2024-01-11T07:37:23;32.55;;;16.05;;
79284;SDS011;68734;50.452;11.636;2024-01-11T07:39:50;22.33;;;13.38;;
79284;SDS011;68734;50.452;11.636;2024-01-11T07:42:19;27.83;;;14.63;;
79284;SDS011;68734;50.452;11.636;2024-01-11T07:44:44;44.90;;;21.67;;
79284;SDS011;68734;50.452;11.636;2024-01-11T07:47:10;37.63;;;22.08;;
79284;SDS011;68734;50.452;11.636;2024-01-11T07:49:44;45.28;;;23.70;;
79284;SDS011;68734;50.452;11.636;2024-01-11T07:52:09;63.13;;;28.83;;
79284;SDS011;68734;50.452;11.636;2024-01-11T07:54:35;50.78;;;22.08;;
79284;SDS011;68734;50.452;11.636;2024-01-11T07:57:01;42.15;;;20.23;;
79284;SDS011;68734;50.452;11.636;2024-01-11T07:59:28;29.23;;;16.75;;
79284;SDS011;68734;50.452;11.636;2024-01-11T08:01:57;40.28;;;20.40;;
79284;SDS011;68734;50.452;11.636;2024-01-11T08:04:23;39.80;;;23.08;;
79284;SDS011;68734;50.452;11.636;2024-01-11T08:06:48;40.97;;;20.45;;
79284;SDS011;68734;50.452;11.636;2024-01-11T08:09:14;39.25;;;20.63;;
79284;SDS011;68734;50.452;11.636;2024-01-11T08:11:40;38.30;;;20.00;;
79284;SDS011;68734;50.452;11.636;2024-01-11T08:14:06;39.33;;;20.00;;
79284;SDS011;68734;50.452;11.636;2024-01-11T08:16:32;48.70;;;26.02;;
79284;SDS011;68734;50.452;11.636;2024-01-11T08:19:00;53.55;;;26.95;;
79284;SDS011;68734;50.452;11.636;2024-01-11T08:21:26;54.83;;;25.02;;
79284;SDS011;68734;50.452;11.636;2024-01-11T08:23:51;56.25;;;26.25;;
79284;SDS011;68734;50.452;11.636;2024-01-11T08:26:20;43.67;;;24.52;;
79284;SDS011;68734;50.452;11.636;2024-01-11T08:28:47;46.15;;;23.65;;
79284;SDS011;68734;50.452;11.636;2024-01-11T08:31:12;46.70;;;28.17;;
79284;SDS011;68734;50.452;11.636;2024-01-11T08:33:38;44.42;;;24.58;;
79284;SDS011;68734;50.452;11.636;2024-01-11T08:36:06;59.22;;;26.67;;
79284;SDS011;68734;50.452;11.636;2024-01-11T08:38:32;62.90;;;30.25;;
79284;SDS011;68734;50.452;11.636;2024-01-11T08:40:58;64.18;;;31.73;;
79284;SDS011;68734;50.452;11.636;2024-01-11T08:43:28;51.72;;;25.10;;
79284;SDS011;68734;50.452;11.636;2024-01-11T08:45:54;55.50;;;28.45;;
79284;SDS011;68734;50.452;11.636;2024-01-11T08:48:19;44.90;;;22.55;;
79284;SDS011;68734;50.452;11.636;2024-01-11T08:50:46;46.15;;;23.48;;
79284;SDS011;68734;50.452;11.636;2024-01-11T08:53:13;42.97;;;23.27;;
79284;SDS011;68734;50.452;11.636;2024-01-11T08:55:40;53.60;;;23.77;;
79284;SDS011;68734;50.452;11.636;2024-01-11T08:58:06;67.65;;;32.58;;
79284;SDS011;68734;50.452;11.636;2024-01-11T09:00:32;73.00;;;33.90;;
79284;SDS011;68734;50.452;11.636;2024-01-11T09:02:57;52.75;;;27.42;;
79284;SDS011;68734;50.452;11.636;2024-01-11T09:05:23;45.15;;;23.55;;
79284;SDS011;68734;50.452;11.636;2024-01-11T09:07:48;45.10;;;22.17;;
79284;SDS011;68734;50.452;11.636;2024-01-11T09:10:14;41.25;;;21.15;;
79284;SDS011;68734;50.452;11.636;2024-01-11T09:12:39;44.22;;;21.20;;
79284;SDS011;68734;50.452;11.636;2024-01-11T09:15:05;49.65;;;20.83;;
79284;SDS011;68734;50.452;11.636;2024-01-11T09:17:31;41.28;;;20.23;;
79284;SDS011;68734;50.452;11.636;2024-01-11T09:19:59;40.13;;;20.33;;
79284;SDS011;68734;50.452;11.636;2024-01-11T09:22:25;47.08;;;24.33;;
79284;SDS011;68734;50.452;11.636;2024-01-11T09:24:51;55.38;;;25.13;;
79284;SDS011;68734;50.452;11.636;2024-01-11T09:29:45;43.63;;;19.87;;
79284;SDS011;68734;50.452;11.636;2024-01-11T09:32:12;43.33;;;22.42;;
79284;SDS011;68734;50.452;11.636;2024-01-11T09:34:37;47.75;;;20.70;;
79284;SDS011;68734;50.452;11.636;2024-01-11T09:37:05;42.05;;;20.92;;
79284;SDS011;68734;50.452;11.636;2024-01-11T09:39:33;35.80;;;17.58;;
79284;SDS011;68734;50.452;11.636;2024-01-11T09:42:02;43.20;;;20.60;;
79284;SDS011;68734;50.452;11.636;2024-01-11T09:44:32;47.10;;;20.40;;
79284;SDS011;68734;50.452;11.636;2024-01-11T09:47:01;44.25;;;22.73;;
79284;SDS011;68734;50.452;11.636;2024-01-11T09:49:27;53.15;;;25.42;;
79284;SDS011;68734;50.452;11.636;2024-01-11T09:51:55;47.15;;;21.90;;
79284;SDS011;68734;50.452;11.636;2024-01-11T09:54:26;46.58;;;22.75;;
79284;SDS011;68734;50.452;11.636;2024-01-11T09:56:52;43.08;;;22.20;;
79284;SDS011;68734;50.452;11.636;2024-01-11T09:59:21;52.90;;;22.75;;
79284;SDS011;68734;50.452;11.636;2024-01-11T10:01:51;50.45;;;23.63;;
79284;SDS011;68734;50.452;11.636;2024-01-11T10:04:19;46.17;;;20.65;;
79284;SDS011;68734;50.452;11.636;2024-01-11T10:06:45;46.03;;;23.77;;
79284;SDS011;68734;50.452;11.636;2024-01-11T10:09:12;45.10;;;21.75;;
79284;SDS011;68734;50.452;11.636;2024-01-11T10:14:07;43.72;;;18.90;;
79284;SDS011;68734;50.452;11.636;2024-01-11T10:16:41;44.38;;;21.10;;
79284;SDS011;68734;50.452;11.636;2024-01-11T10:19:07;37.15;;;18.77;;
79284;SDS011;68734;50.452;11.636;2024-01-11T10:21:37;41.75;;;19.20;;
79284;SDS011;68734;50.452;11.636;2024-01-11T10:24:04;51.15;;;21.58;;
79284;SDS011;68734;50.452;11.636;2024-01-11T10:29:00;39.75;;;19.45;;
79284;SDS011;68734;50.452;11.636;2024-01-11T10:31:30;41.83;;;21.27;;
79284;SDS011;68734;50.452;11.636;2024-01-11T10:36:25;36.17;;;17.23;;
79284;SDS011;68734;50.452;11.636;2024-01-11T10:41:18;39.60;;;20.33;;
79284;SDS011;68734;50.452;11.636;2024-01-11T10:43:45;49.50;;;21.95;;
79284;SDS011;68734;50.452;11.636;2024-01-11T10:46:12;48.03;;;22.13;;
79284;SDS011;68734;50.452;11.636;2024-01-11T10:48:40;40.58;;;20.95;;
79284;SDS011;68734;50.452;11.636;2024-01-11T10:51:08;41.92;;;20.83;;
79284;SDS011;68734;50.452;11.636;2024-01-11T10:53:45;45.55;;;20.05;;
79284;SDS011;68734;50.452;11.636;2024-01-11T10:56:15;43.28;;;21.50;;
79284;SDS011;68734;50.452;11.636;2024-01-11T10:58:42;45.75;;;23.40;;
79284;SDS011;68734;50.452;11.636;2024-01-11T11:01:08;42.35;;;20.27;;
79284;SDS011;68734;50.452;11.636;2024-01-11T11:03:38;44.60;;;22.17;;
79284;SDS011;68734;50.452;11.636;2024-01-11T11:06:08;44.40;;;21.55;;
79284;SDS011;68734;50.452;11.636;2024-01-11T11:08:36;46.58;;;22.33;;
79284;SDS011;68734;50.452;11.636;2024-01-11T11:11:03;45.63;;;22.00;;
79284;SDS011;68734;50.452;11.636;2024-01-11T11:13:35;42.00;;;19.80;;
79284;SDS011;68734;50.452;11.636;2024-01-11T11:16:00;47.90;;;23.98;;
79284;SDS011;68734;50.452;11.636;2024-01-11T11:18:28;44.22;;;21.05;;
79284;SDS011;68734;50.452;11.636;2024-01-11T11:23:22;40.63;;;20.27;;
79284;SDS011;68734;50.452;11.636;2024-01-11T11:25:48;37.13;;;19.40;;
79284;SDS011;68734;50.452;11.636;2024-01-11T11:28:17;46.47;;;22.67;;
79284;SDS011;68734;50.452;11.636;2024-01-11T11:30:44;39.35;;;19.35;;
79284;SDS011;68734;50.452;11.636;2024-01-11T11:33:23;40.25;;;19.73;;
79284;SDS011;68734;50.452;11.636;2024-01-11T11:35:51;45.53;;;20.83;;
79284;SDS011;68734;50.452;11.636;2024-01-11T11:38:23;35.33;;;20.05;;
79284;SDS011;68734;50.452;11.636;2024-01-11T11:40:58;39.53;;;18.30;;
79284;SDS011;68734;50.452;11.636;2024-01-11T11:43:28;43.08;;;17.50;;
79284;SDS011;68734;50.452;11.636;2024-01-11T11:45:59;36.40;;;19.48;;
79284;SDS011;68734;50.452;11.636;2024-01-11T11:51:10;30.30;;;15.73;;
79284;SDS011;68734;50.452;11.636;2024-01-11T11:53:39;37.97;;;18.55;;
79284;SDS011;68734;50.452;11.636;2024-01-11T11:56:06;33.42;;;18.02;;
79284;SDS011;68734;50.452;11.636;2024-01-11T11:58:32;31.13;;;16.33;;
79284;SDS011;68734;50.452;11.636;2024-01-11T12:00:59;38.70;;;17.48;;
79284;SDS011;68734;50.452;11.636;2024-01-11T12:03:28;35.42;;;19.52;;
79284;SDS011;68734;50.452;11.636;2024-01-11T12:05:55;31.13;;;15.13;;
79284;SDS011;68734;50.452;11.636;2024-01-11T12:08:21;35.00;;;17.73;;
79284;SDS011;68734;50.452;11.636;2024-01-11T12:10:47;37.53;;;17.98;;
79284;SDS011;68734;50.452;11.636;2024-01-11T12:13:14;18.75;;;10.43;;
79284;SDS011;68734;50.452;11.636;2024-01-11T12:15:42;23.98;;;10.85;;
79284;SDS011;68734;50.452;11.636;2024-01-11T12:18:07;30.23;;;13.98;;
79284;SDS011;68734;50.452;11.636;2024-01-11T12:20:35;19.02;;;10.07;;
79284;SDS011;68734;50.452;11.636;2024-01-11T12:23:01;22.05;;;9.70;;
79284;SDS011;68734;50.452;11.636;2024-01-11T12:25:30;18.42;;;10.10;;
79284;SDS011;68734;50.452;11.636;2024-01-11T12:27:56;13.82;;;8.63;;
79284;SDS011;68734;50.452;11.636;2024-01-11T12:30:23;16.27;;;9.07;;
79284;SDS011;68734;50.452;11.636;2024-01-11T12:32:52;18.42;;;9.88;;
79284;SDS011;68734;50.452;11.636;2024-01-11T12:35:18;15.15;;;8.10;;
79284;SDS011;68734;50.452;11.636;2024-01-11T12:43:05;9.98;;;4.85;;
79284;SDS011;68734;50.452;11.636;2024-01-11T12:45:31;11.98;;;5.93;;
79284;SDS011;68734;50.452;11.636;2024-01-11T12:48:00;14.80;;;7.93;;
79284;SDS011;68734;50.452;11.636;2024-01-11T12:50:32;7.22;;;4.47;;
79284;SDS011;68734;50.452;11.636;2024-01-11T12:53:19;8.30;;;4.88;;
79284;SDS011;68734;50.452;11.636;2024-01-11T12:55:48;8.88;;;5.20;;
79284;SDS011;68734;50.452;11.636;2024-01-11T12:58:18;9.65;;;5.03;;
79284;SDS011;68734;50.452;11.636;2024-01-11T13:00:47;9.00;;;5.20;;
79284;SDS011;68734;50.452;11.636;2024-01-11T13:03:16;20.20;;;8.95;;
79284;SDS011;68734;50.452;11.636;2024-01-11T13:05:41;18.15;;;7.53;;
79284;SDS011;68734;50.452;11.636;2024-01-11T13:08:07;17.85;;;9.10;;
79284;SDS011;68734;50.452;11.636;2024-01-11T13:10:34;19.17;;;9.55;;
79284;SDS011;68734;50.452;11.636;2024-01-11T13:13:01;40.85;;;15.82;;
79284;SDS011;68734;50.452;11.636;2024-01-11T13:15:27;19.80;;;8.88;;
79284;SDS011;68734;50.452;11.636;2024-01-11T13:17:54;13.18;;;5.78;;
79284;SDS011;68734;50.452;11.636;2024-01-11T13:20:26;12.55;;;5.05;;
79284;SDS011;68734;50.452;11.636;2024-01-11T13:22:53;7.63;;;4.80;;
79284;SDS011;68734;50.452;11.636;2024-01-11T13:25:36;10.73;;;5.15;;
79284;SDS011;68734;50.452;11.636;2024-01-11T13:28:04;8.32;;;4.40;;
79284;SDS011;68734;50.452;11.636;2024-01-11T13:30:31;9.32;;;4.07;;
79284;SDS011;68734;50.452;11.636;2024-01-11T13:32:57;10.50;;;4.13;;
79284;SDS011;68734;50.452;11.636;2024-01-11T13:35:23;6.30;;;3.60;;
79284;SDS011;68734;50.452;11.636;2024-01-11T13:37:49;5.55;;;3.50;;
79284;SDS011;68734;50.452;11.636;2024-01-11T13:40:15;6.30;;;3.55;;
79284;SDS011;68734;50.452;11.636;2024-01-11T13:42:40;6.57;;;4.05;;
79284;SDS011;68734;50.452;11.636;2024-01-11T13:45:06;7.35;;;4.20;;
79284;SDS011;68734;50.452;11.636;2024-01-11T13:47:35;7.70;;;3.78;;
79284;SDS011;68734;50.452;11.636;2024-01-11T13:50:03;9.77;;;4.55;;
79284;SDS011;68734;50.452;11.636;2024-01-11T13:52:29;6.80;;;4.75;;
79284;SDS011;68734;50.452;11.636;2024-01-11T13:54:54;8.98;;;4.70;;
79284;SDS011;68734;50.452;11.636;2024-01-11T13:57:20;10.02;;;5.00;;
79284;SDS011;68734;50.452;11.636;2024-01-11T13:59:46;13.57;;;5.10;;
79284;SDS011;68734;50.452;11.636;2024-01-11T14:02:11;9.40;;;5.40;;
79284;SDS011;68734;50.452;11.636;2024-01-11T14:04:37;11.73;;;5.25;;
79284;SDS011;68734;50.452;11.636;2024-01-11T14:07:06;11.07;;;4.63;;
79284;SDS011;68734;50.452;11.636;2024-01-11T14:09:32;8.93;;;4.15;;
79284;SDS011;68734;50.452;11.636;2024-01-11T14:11:58;9.85;;;4.63;;
79284;SDS011;68734;50.452;11.636;2024-01-11T14:14:23;9.98;;;4.70;;
79284;SDS011;68734;50.452;11.636;2024-01-11T14:16:48;9.10;;;5.40;;
79284;SDS011;68734;50.452;11.636;2024-01-11T14:19:16;9.32;;;5.13;;
79284;SDS011;68734;50.452;11.636;2024-01-11T14:21:43;7.05;;;3.28;;
79284;SDS011;68734;50.452;11.636;2024-01-11T14:24:09;8.90;;;3.65;;
79284;SDS011;68734;50.452;11.636;2024-01-11T14:26:34;4.75;;;2.90;;
79284;SDS011;68734;50.452;11.636;2024-01-11T14:29:00;9.35;;;3.88;;
79284;SDS011;68734;50.452;11.636;2024-01-11T14:31:26;6.07;;;3.58;;
79284;SDS011;68734;50.452;11.636;2024-01-11T14:33:52;6.22;;;3.15;;
79284;SDS011;68734;50.452;11.636;2024-01-11T14:36:20;7.82;;;3.00;;
79284;SDS011;68734;50.452;11.636;2024-01-11T14:38:49;4.57;;;2.85;;
79284;SDS011;68734;50.452;11.636;2024-01-11T14:41:18;7.65;;;3.25;;
79284;SDS011;68734;50.452;11.636;2024-01-11T14:43:43;4.95;;;2.80;;
79284;SDS011;68734;50.452;11.636;2024-01-11T14:46:09;5.97;;;3.55;;